createdAt,value
2023-05-09T00:00:39.128Z,98.75
2023-05-09T00:03:29.904Z,127.03
2023-05-09T00:06:17.455Z,105.45
2023-05-09T00:09:05.317Z,133.23
2023-05-09T00:11:52.516Z,109.82
2023-05-09T00:14:42.738Z,88.13
2023-05-09T00:17:30.877Z,116.28
2023-05-09T00:20:22.815Z,119.35
2023-05-09T00:23:14.584Z,112.15
2023-05-09T00:26:03.909Z,127.77
2023-05-09T00:28:53.593Z,101.38
2023-05-09T00:31:40.871Z,105.93
2023-05-09T00:34:28.073Z,132.20
2023-05-09T00:37:15.300Z,124.72
2023-05-09T00:40:03.308Z,144.90
2023-05-09T00:42:52.903Z,125.70
2023-05-09T00:45:40.159Z,98.03
2023-05-09T00:48:35.929Z,90.53
2023-05-09T00:51:26.277Z,83.75
2023-05-09T00:54:16.161Z,74.30
2023-05-09T00:57:03.418Z,82.68
2023-05-09T00:59:52.969Z,96.97
2023-05-09T01:02:48.138Z,91.47
2023-05-09T01:06:12.036Z,85.07
2023-05-09T01:09:23.962Z,106.97
2023-05-09T01:12:41.944Z,112.20
2023-05-09T01:15:37.988Z,91.82
2023-05-09T01:18:38.567Z,80.80
2023-05-09T01:21:29.425Z,109.07
2023-05-09T01:24:44.742Z,132.52
2023-05-09T01:27:47.047Z,136.73
2023-05-09T01:30:56.702Z,96.32
2023-05-09T01:33:52.869Z,131.65
2023-05-09T01:36:42.685Z,140.68
2023-05-09T01:39:33.293Z,138.63
2023-05-09T01:42:24.579Z,136.45
2023-05-09T01:45:15.947Z,137.90
2023-05-09T01:48:04.643Z,130.20
2023-05-09T01:50:52.864Z,140.85
2023-05-09T01:53:43.382Z,132.52
2023-05-09T01:56:31.911Z,147.40
2023-05-09T01:59:23.051Z,170.85
2023-05-09T02:02:10.932Z,151.18
2023-05-09T02:05:21.385Z,132.88
2023-05-09T02:08:09.582Z,122.45
2023-05-09T02:10:56.743Z,127.68
2023-05-09T02:13:43.984Z,150.48
2023-05-09T02:16:33.274Z,166.95
2023-05-09T02:19:20.627Z,135.23
2023-05-09T02:22:12.098Z,130.48
2023-05-09T02:25:04.728Z,126.75
2023-05-09T02:27:55.600Z,126.22
2023-05-09T02:30:45.653Z,128.25
2023-05-09T02:33:36.852Z,127.75
2023-05-09T02:36:26.309Z,129.23
2023-05-09T02:39:13.700Z,117.15
2023-05-09T02:42:09.507Z,109.30
2023-05-09T02:44:56.816Z,90.07
2023-05-09T02:47:44.277Z,100.00
2023-05-09T02:50:31.643Z,93.80
2023-05-09T02:53:19.425Z,99.65
2023-05-09T02:56:10.997Z,103.70
2023-05-09T02:58:58.125Z,138.52
2023-05-09T03:01:47.758Z,153.23
2023-05-09T03:04:35.045Z,125.95
2023-05-09T03:07:22.327Z,128.43
2023-05-09T03:10:11.656Z,129.43
2023-05-09T03:12:58.912Z,138.93
2023-05-09T03:15:46.191Z,123.07
2023-05-09T03:18:42.713Z,152.25
2023-05-09T03:21:29.860Z,161.82
2023-05-09T03:24:17.125Z,157.10
2023-05-09T03:27:04.338Z,158.60
2023-05-09T03:29:52.463Z,153.48
2023-05-09T03:32:42.227Z,154.65
2023-05-09T03:35:31.846Z,146.68
2023-05-09T03:38:24.208Z,152.82
2023-05-09T03:41:16.041Z,171.15
2023-05-09T03:44:04.748Z,135.95
2023-05-09T03:46:52.057Z,149.35
2023-05-09T03:49:39.245Z,131.57
2023-05-09T03:52:26.435Z,134.80
2023-05-09T03:55:13.967Z,153.52
2023-05-09T03:58:03.716Z,148.18
2023-05-09T04:00:51.001Z,191.52
2023-05-09T04:03:59.718Z,167.95
2023-05-09T04:06:47.183Z,176.57
2023-05-09T04:09:34.397Z,207.57
2023-05-09T04:12:22.158Z,205.52
2023-05-09T04:15:10.062Z,337.80
2023-05-09T04:17:57.228Z,379.73
2023-05-09T04:20:44.400Z,249.68
2023-05-09T04:23:31.706Z,348.90
2023-05-09T04:26:19.108Z,827.47
2023-05-09T04:29:06.543Z,602.42
2023-05-09T04:31:54.014Z,597.05
2023-05-09T04:34:41.525Z,755.25
2023-05-09T04:37:29.248Z,607.05
2023-05-09T04:40:16.978Z,433.13
2023-05-09T04:43:04.341Z,334.38
2023-05-09T04:45:53.824Z,180.38
2023-05-09T04:48:43.302Z,288.23
2023-05-09T04:51:30.447Z,366.42
2023-05-09T04:54:17.803Z,173.90
2023-05-09T04:57:17.397Z,181.23
2023-05-09T05:00:11.519Z,236.13
2023-05-09T05:02:58.923Z,323.27
2023-05-09T05:05:46.680Z,118.65
2023-05-09T05:08:33.973Z,166.82
2023-05-09T05:11:21.892Z,169.20
2023-05-09T05:14:09.110Z,141.30
2023-05-09T05:16:56.453Z,118.50
2023-05-09T05:19:43.884Z,124.63
2023-05-09T05:22:33.703Z,133.80
2023-05-09T05:25:21.455Z,106.72
2023-05-09T05:28:09.889Z,152.40
2023-05-09T05:31:02.276Z,114.82
2023-05-09T05:33:49.504Z,118.65
2023-05-09T05:36:38.005Z,115.13
2023-05-09T05:39:27.825Z,125.78
2023-05-09T05:42:17.085Z,122.07
2023-05-09T05:45:04.869Z,114.20
2023-05-09T05:47:53.716Z,104.05
2023-05-09T05:50:45.762Z,113.53
2023-05-09T05:53:32.982Z,100.53
2023-05-09T05:56:21.827Z,93.68
2023-05-09T05:59:13.234Z,96.80
2023-05-09T06:02:00.861Z,90.37
2023-05-09T06:04:50.619Z,82.80
2023-05-09T06:07:40.220Z,74.78
2023-05-09T06:10:31.158Z,70.45
2023-05-09T06:13:18.360Z,69.35
2023-05-09T06:16:18.087Z,57.65
2023-05-09T06:19:09.070Z,60.33
2023-05-09T06:21:56.500Z,58.00
2023-05-09T06:24:45.875Z,55.95
2023-05-09T06:27:35.643Z,46.25
2023-05-09T06:30:26.714Z,41.75
2023-05-09T06:33:14.519Z,40.45
2023-05-09T06:36:04.900Z,34.95
2023-05-09T06:38:52.227Z,33.15
2023-05-09T06:41:40.962Z,31.50
2023-05-09T06:44:28.277Z,26.80
2023-05-09T06:47:15.485Z,21.67
2023-05-09T06:50:02.656Z,18.98
2023-05-09T06:52:55.794Z,18.30
2023-05-09T06:55:44.749Z,13.20
2023-05-09T06:58:34.579Z,12.90
2023-05-09T07:01:27.218Z,14.00
2023-05-09T07:07:04.098Z,14.60
2023-05-09T07:09:55.268Z,16.42
2023-05-09T07:12:50.925Z,11.85
2023-05-09T07:15:41.931Z,15.32
2023-05-09T07:18:33.456Z,15.55
2023-05-09T07:21:40.217Z,14.07
2023-05-09T07:33:32.929Z,15.88
2023-05-09T07:49:24.425Z,16.13
2023-05-09T08:12:54.854Z,13.45
2023-05-09T08:50:18.854Z,9.77
2023-05-09T08:54:01.226Z,11.80
2023-05-09T08:57:10.670Z,8.73
2023-05-09T09:08:34.243Z,6.72
2023-05-09T09:11:25.476Z,11.00
2023-05-09T09:47:01.458Z,8.18
2023-05-09T09:50:01.425Z,11.30
2023-05-09T10:01:31.129Z,9.75
2023-05-09T10:11:04.561Z,12.13
2023-05-09T10:14:00.193Z,8.60
2023-05-09T10:21:11.612Z,6.55
2023-05-09T10:28:34.962Z,9.07
2023-05-09T10:31:12.371Z,6.30
2023-05-09T10:37:42.389Z,3.92
2023-05-09T10:44:54.552Z,4.68
2023-05-09T10:52:08.333Z,3.47
2023-05-09T10:55:33.872Z,3.47
2023-05-09T10:58:29.020Z,3.50
2023-05-09T11:05:27.416Z,2.63
2023-05-09T11:08:42.728Z,3.35
2023-05-09T11:11:30.041Z,3.80
2023-05-09T11:33:30.443Z,3.70
2023-05-09T11:36:34.024Z,4.07
2023-05-09T11:39:25.613Z,3.75
2023-05-09T11:42:18.076Z,4.10
2023-05-09T11:45:07.443Z,3.03
2023-05-09T11:47:54.906Z,3.08
2023-05-09T11:50:42.282Z,4.63
2023-05-09T11:53:48.766Z,4.85
2023-05-09T11:56:45.328Z,6.13
2023-05-09T11:59:34.842Z,5.22
2023-05-09T12:02:24.940Z,3.95
2023-05-09T12:05:19.506Z,3.58
2023-05-09T12:12:23.325Z,4.38
2023-05-09T12:19:47.245Z,3.67
2023-05-09T12:23:34.391Z,3.40
2023-05-09T12:54:24.225Z,2.47
2023-05-09T12:57:23.474Z,1.77
2023-05-09T13:06:50.691Z,2.28
2023-05-09T13:10:12.519Z,2.53
2023-05-09T13:13:20.626Z,2.33
2023-05-09T13:20:43.520Z,3.80
2023-05-09T13:27:32.146Z,1.52
2023-05-09T13:41:58.100Z,6.72
2023-05-09T13:45:43.571Z,2.08
2023-05-09T13:52:05.863Z,1.73
2023-05-09T13:54:59.607Z,2.20
2023-05-09T13:57:57.387Z,7.13
2023-05-09T14:04:57.367Z,1.90
2023-05-09T14:10:41.098Z,3.72
2023-05-09T14:13:34.671Z,2.60
2023-05-09T14:16:30.477Z,3.50
2023-05-09T14:20:19.619Z,2.60
2023-05-09T14:23:13.817Z,1.40
2023-05-09T14:26:13.535Z,2.13
2023-05-09T14:33:16.873Z,1.80
2023-05-09T14:36:07.691Z,2.15
2023-05-09T14:38:57.512Z,1.50
2023-05-09T14:41:47.035Z,1.33
2023-05-09T14:44:45.433Z,1.30
2023-05-09T14:47:33.844Z,1.40
2023-05-09T14:50:23.795Z,1.67
2023-05-09T14:53:11.372Z,1.42
2023-05-09T14:55:58.817Z,3.53
2023-05-09T14:58:46.437Z,1.58
2023-05-09T15:01:33.740Z,6.43
2023-05-09T15:04:21.223Z,2.90
2023-05-09T15:07:14.312Z,1.92
2023-05-09T15:10:04.711Z,1.85
2023-05-09T15:16:01.631Z,1.88
2023-05-09T15:21:36.418Z,1.80
2023-05-09T15:24:27.533Z,2.75
2023-05-09T15:27:14.847Z,1.67
2023-05-09T15:30:02.680Z,1.75
2023-05-09T15:32:52.045Z,1.50
2023-05-09T15:35:39.923Z,2.55
2023-05-09T15:38:27.932Z,4.68
2023-05-09T15:41:16.815Z,1.65
2023-05-09T15:44:16.693Z,1.95
2023-05-09T15:47:10.648Z,2.45
2023-05-09T15:50:03.920Z,3.58
2023-05-09T15:52:52.484Z,1.83
2023-05-09T15:55:39.699Z,1.40
2023-05-09T15:58:27.512Z,2.42
2023-05-09T16:01:14.792Z,4.78
2023-05-09T16:04:05.389Z,1.75
2023-05-09T16:06:55.664Z,11.50
2023-05-09T16:09:43.623Z,1.40
2023-05-09T16:12:32.904Z,1.70
2023-05-09T16:15:20.949Z,3.90
2023-05-09T16:18:09.105Z,2.47
2023-05-09T16:20:56.434Z,3.95
2023-05-09T16:23:49.753Z,2.67
2023-05-09T16:26:37.006Z,1.75
2023-05-09T16:29:28.593Z,2.35
2023-05-09T16:32:16.062Z,3.60
2023-05-09T16:35:04.785Z,2.33
2023-05-09T16:37:52.110Z,5.43
2023-05-09T16:40:41.581Z,2.13
2023-05-09T16:43:29.043Z,1.42
2023-05-09T16:46:16.367Z,1.60
2023-05-09T16:49:03.642Z,3.70
2023-05-09T16:51:52.496Z,1.90
2023-05-09T16:54:39.680Z,1.63
2023-05-09T16:57:26.941Z,2.08
2023-05-09T17:00:17.202Z,3.35
2023-05-09T17:03:08.014Z,6.10
2023-05-09T17:05:55.772Z,1.80
2023-05-09T17:08:43.704Z,3.03
2023-05-09T17:11:34.914Z,2.65
2023-05-09T17:14:22.463Z,2.50
2023-05-09T17:17:09.798Z,3.20
2023-05-09T17:19:57.931Z,3.40
2023-05-09T17:22:47.744Z,11.32
2023-05-09T17:25:37.739Z,6.28
2023-05-09T17:28:25.284Z,6.57
2023-05-09T17:31:13.992Z,6.22
2023-05-09T17:34:02.058Z,4.70
2023-05-09T17:36:53.386Z,10.23
2023-05-09T17:39:52.719Z,6.20
2023-05-09T17:42:43.667Z,3.13
2023-05-09T17:45:31.074Z,3.67
2023-05-09T17:48:25.620Z,4.32
2023-05-09T17:51:16.014Z,6.40
2023-05-09T17:54:08.129Z,1.95
2023-05-09T17:57:03.046Z,7.32
2023-05-09T17:59:51.965Z,4.72
2023-05-09T18:02:39.568Z,3.83
2023-05-09T18:05:30.556Z,4.63
2023-05-09T18:08:20.872Z,3.28
2023-05-09T18:11:08.614Z,2.97
2023-05-09T18:13:56.178Z,5.22
2023-05-09T18:16:44.355Z,5.78
2023-05-09T18:19:34.500Z,6.72
2023-05-09T18:22:22.037Z,7.55
2023-05-09T18:25:10.085Z,5.38
2023-05-09T18:27:57.434Z,4.72
2023-05-09T18:30:44.825Z,4.97
2023-05-09T18:33:41.797Z,3.78
2023-05-09T18:36:30.563Z,3.58
2023-05-09T18:39:18.758Z,4.15
2023-05-09T18:42:06.901Z,5.65
2023-05-09T18:44:57.513Z,3.40
2023-05-09T18:47:45.928Z,5.13
2023-05-09T18:50:37.306Z,4.55
2023-05-09T18:53:26.935Z,3.50
2023-05-09T18:56:16.443Z,5.03
2023-05-09T18:59:04.158Z,5.68
2023-05-09T19:01:51.597Z,7.57
2023-05-09T19:04:39.228Z,8.07
2023-05-09T19:07:27.312Z,7.38
2023-05-09T19:10:18.244Z,4.65
2023-05-09T19:13:06.440Z,4.43
2023-05-09T19:15:54.151Z,5.07
2023-05-09T19:18:42.024Z,7.82
2023-05-09T19:21:34.452Z,4.68
2023-05-09T19:24:23.927Z,5.80
2023-05-09T19:27:11.292Z,6.90
2023-05-09T19:30:05.073Z,6.35
2023-05-09T19:36:22.671Z,5.75
2023-05-09T19:39:11.943Z,9.73
2023-05-09T19:42:00.602Z,7.15
2023-05-09T19:44:53.601Z,7.50
2023-05-09T19:50:30.352Z,8.57
2023-05-09T19:53:18.578Z,8.95
2023-05-09T19:56:08.277Z,7.18
2023-05-09T19:58:55.849Z,6.47
2023-05-09T20:01:43.464Z,7.43
2023-05-09T20:04:38.809Z,7.03
2023-05-09T20:07:26.649Z,7.30
2023-05-09T20:10:15.796Z,8.30
2023-05-09T20:13:05.035Z,9.13
2023-05-09T20:15:52.553Z,6.47
2023-05-09T20:18:39.984Z,7.57
2023-05-09T20:21:28.896Z,7.05
2023-05-09T20:24:16.698Z,9.35
2023-05-09T20:27:04.059Z,7.70
2023-05-09T20:29:53.985Z,9.73
2023-05-09T20:32:45.522Z,11.82
2023-05-09T20:35:33.318Z,10.35
2023-05-09T20:38:21.127Z,8.88
2023-05-09T20:41:08.383Z,7.93
2023-05-09T20:43:59.182Z,8.13
2023-05-09T20:46:47.003Z,8.82
2023-05-09T20:49:34.808Z,7.50
2023-05-09T20:52:23.369Z,10.45
2023-05-09T20:55:10.781Z,10.20
2023-05-09T20:57:58.245Z,6.15
2023-05-09T21:00:49.486Z,11.27
2023-05-09T21:03:38.970Z,9.10
2023-05-09T21:06:29.493Z,7.80
2023-05-09T21:09:19.014Z,5.90
2023-05-09T21:12:07.398Z,6.88
2023-05-09T21:14:56.432Z,4.60
2023-05-09T21:17:43.826Z,5.85
2023-05-09T21:20:33.518Z,7.47
2023-05-09T21:23:23.743Z,4.70
2023-05-09T21:26:11.183Z,4.55
2023-05-09T21:29:00.593Z,6.28
2023-05-09T21:31:47.951Z,7.43
2023-05-09T21:34:37.420Z,5.68
2023-05-09T21:37:25.928Z,6.05
2023-05-09T21:40:22.345Z,6.03
2023-05-09T21:43:09.735Z,5.78
2023-05-09T21:45:57.400Z,4.68
2023-05-09T21:48:45.651Z,5.20
2023-05-09T21:51:33.830Z,4.57
2023-05-09T21:54:21.241Z,6.38
2023-05-09T21:57:08.751Z,6.03
2023-05-09T22:00:01.637Z,4.85
2023-05-09T22:06:43.616Z,4.57
2023-05-09T22:09:31.580Z,4.68
2023-05-09T22:12:19.580Z,6.55
2023-05-09T22:15:10.828Z,4.75
2023-05-09T22:17:58.161Z,4.45
2023-05-09T22:20:45.459Z,4.38
2023-05-09T22:23:32.738Z,4.40
2023-05-09T22:26:20.073Z,6.57
2023-05-09T22:29:07.228Z,6.35
2023-05-09T22:31:54.735Z,6.05
2023-05-09T22:34:42.179Z,5.07
2023-05-09T22:37:29.244Z,4.50
2023-05-09T22:40:16.771Z,3.70
2023-05-09T22:43:04.363Z,4.07
2023-05-09T22:45:53.987Z,4.03
2023-05-09T22:48:41.500Z,3.97
2023-05-09T22:51:28.971Z,4.72
2023-05-09T22:54:20.598Z,3.50
2023-05-09T22:57:07.684Z,2.75
2023-05-09T22:59:54.738Z,2.30
2023-05-09T23:02:41.983Z,2.40
2023-05-09T23:05:29.498Z,2.85
2023-05-09T23:08:19.798Z,3.78
2023-05-09T23:11:07.797Z,3.60
2023-05-09T23:13:54.913Z,3.70
2023-05-09T23:16:42.280Z,1.98
2023-05-09T23:19:29.473Z,1.88
2023-05-09T23:22:16.617Z,2.75
2023-05-09T23:25:05.094Z,2.72
2023-05-09T23:27:52.259Z,3.95
2023-05-09T23:30:44.024Z,1.92
2023-05-09T23:33:31.175Z,3.90
2023-05-09T23:36:18.278Z,3.78
2023-05-09T23:39:08.238Z,2.10
2023-05-09T23:41:58.311Z,3.38
2023-05-09T23:44:45.539Z,3.28
2023-05-09T23:47:32.961Z,1.88
2023-05-09T23:50:27.629Z,2.10
2023-05-09T23:53:14.687Z,2.42
2023-05-09T23:56:06.770Z,2.17
2023-05-09T23:58:54.115Z,2.30
